Time;durP1;ratioP1;P1;durP2;ratioP2;P2;SDS_P1;SDS_P2;PMS_P1;PMS_P2;Temp;Humidity;BMP_temperature;BMP_pressure;BME280_temperature;BME280_humidity;BME280_pressure;Samples;Min_cycle;Max_cycle;Signal;HPM_P1;HPM_P2
2022/11/19 00:01:03;;;;;;;1.23;0.87;;;18.40;99.90;;;18.53;51.17;100230.59;4889436;28;97366;-45
2022/11/19 00:03:31;;;;;;;1.07;0.70;;;18.40;99.90;;;18.51;51.09;100229.84;4887938;28;102205;-43
2022/11/19 00:06:18;;;;;;;1.73;0.80;;;18.40;99.90;;;18.50;51.11;100230.81;4887985;28;96978;-43
2022/11/19 00:08:45;;;;;;;1.00;0.60;;;18.40;99.90;;;18.47;nan;100236.38;4879620;28;104630;-46
2022/11/19 00:14:13;;;;;;;0.73;0.57;;;18.40;99.90;;;18.49;50.88;100229.09;4882496;28;97382;-43
2022/11/19 00:16:40;;;;;;;0.60;0.60;;;18.40;99.90;;;18.44;51.33;100225.94;4885470;28;97543;-47
2022/11/19 00:19:06;;;;;;;0.70;0.70;;;18.30;99.90;;;18.40;51.14;100225.31;4889270;28;98881;-43
2022/11/19 00:21:32;;;;;;;0.70;0.50;;;18.30;99.90;;;18.36;51.24;100228.31;4866029;28;97434;-45
2022/11/19 00:23:58;;;;;;;1.47;0.60;;;18.20;99.90;;;18.35;51.44;100226.63;4887977;28;99456;-44
2022/11/19 00:26:24;;;;;;;1.47;0.90;;;18.20;99.90;;;18.31;51.34;100225.16;4881569;28;118241;-43
2022/11/19 00:28:50;;;;;;;0.87;0.60;;;18.10;99.90;;;18.34;51.55;100220.44;4879982;28;97045;-44
2022/11/19 00:31:17;;;;;;;1.07;0.97;;;18.20;99.90;;;18.39;51.40;100222.78;4885320;28;108878;-48
2022/11/19 00:33:44;;;;;;;0.63;0.57;;;18.30;99.90;;;18.40;51.07;100224.47;4880448;28;100034;-44
2022/11/19 00:36:13;;;;;;;1.00;0.73;;;18.30;99.90;;;18.43;51.05;100224.22;4882844;28;98044;-43
2022/11/19 00:38:39;;;;;;;0.97;0.70;;;18.30;99.90;;;18.41;51.09;100227.03;4883071;28;99469;-46
2022/11/19 00:41:05;;;;;;;1.07;0.67;;;18.40;99.90;;;18.44;51.09;100220.59;4890415;28;97565;-43
2022/11/19 00:43:46;;;;;;;0.90;0.50;;;18.40;99.90;;;18.45;51.20;100222.31;4884389;28;97842;-43
2022/11/19 00:46:20;;;;;;;1.97;0.70;;;18.40;99.90;;;18.49;50.89;100220.25;4891741;28;97806;-43
2022/11/19 00:48:48;;;;;;;0.90;0.63;;;18.50;99.90;;;18.52;50.75;100223.56;4883286;28;102694;-49
2022/11/19 00:51:16;;;;;;;1.83;0.73;;;18.60;99.90;;;18.54;50.65;100226.97;4880029;28;97928;-44
2022/11/19 00:53:42;;;;;;;1.00;0.60;;;18.60;99.90;;;18.57;50.59;100221.38;4875119;28;99786;-43
2022/11/19 00:56:14;;;;;;;0.50;0.47;;;18.60;99.90;;;18.62;50.55;100219.19;4893365;28;97694;-43
2022/11/19 00:58:41;;;;;;;2.50;0.80;;;18.70;99.90;;;18.62;50.54;100224.53;4891229;28;98161;-46
2022/11/19 01:01:08;;;;;;;1.20;0.63;;;18.70;99.90;;;18.65;50.35;100223.47;4890208;28;98300;-44
2022/11/19 01:03:35;;;;;;;0.70;0.43;;;18.70;99.90;;;18.67;50.33;100222.44;4887930;28;97209;-43
2022/11/19 01:06:01;;;;;;;1.27;0.90;;;18.70;99.90;;;18.67;50.16;100221.56;4878191;28;102558;-46
2022/11/19 01:08:27;;;;;;;1.17;0.70;;;18.70;99.90;;;18.67;50.34;100222.44;4878328;28;98502;-42
2022/11/19 01:10:52;;;;;;;2.30;0.63;;;18.70;99.90;;;18.69;50.04;100231.16;4872508;28;97602;-46
2022/11/19 01:13:33;;;;;;;0.50;0.40;;;18.80;99.90;;;18.70;50.31;100232.03;4885578;28;107683;-43
2022/11/19 01:16:03;;;;;;;0.73;0.63;;;18.70;99.90;;;18.66;50.31;100231.41;4882322;28;97690;-44
2022/11/19 01:18:29;;;;;;;1.17;0.90;;;18.80;99.90;;;18.70;50.43;100232.88;4886439;28;98705;-43
2022/11/19 01:20:55;;;;;;;1.63;0.40;;;18.80;99.90;;;18.72;50.34;100235.41;4886307;28;104445;-42
2022/11/19 01:23:20;;;;;;;0.87;0.50;;;18.80;99.90;;;18.72;50.17;100241.63;4882604;28;98507;-45
2022/11/19 01:25:46;;;;;;;0.70;0.50;;;18.80;99.90;;;18.70;50.47;100230.19;4874566;28;118879;-46
2022/11/19 01:28:12;;;;;;;1.00;0.70;;;18.80;99.90;;;18.67;50.35;100235.78;4892288;28;98461;-44
2022/11/19 01:30:42;;;;;;;0.83;0.50;;;18.70;99.90;;;18.62;50.24;100235.22;4888323;28;104242;-43
2022/11/19 01:33:08;;;;;;;1.33;0.67;;;18.60;99.90;;;18.56;50.66;100233.03;4887017;28;97062;-46
2022/11/19 01:35:35;;;;;;;0.70;0.50;;;18.50;99.90;;;18.53;50.93;100235.09;4877903;28;97339;-46
2022/11/19 01:38:02;;;;;;;0.60;0.50;;;18.50;99.90;;;18.53;50.67;100238.59;4886937;28;99178;-42
2022/11/19 01:40:29;;;;;;;0.63;0.60;;;18.50;99.90;;;18.55;50.93;100244.69;4887127;28;103813;-45
2022/11/19 01:42:55;;;;;;;0.80;0.53;;;18.50;99.90;;;18.55;50.77;100244.69;4890202;28;100388;-42
2022/11/19 01:45:41;;;;;;;0.60;0.43;;;18.50;99.90;;;18.59;50.71;100246.16;4890119;28;97401;-43
2022/11/19 01:48:25;;;;;;;0.60;0.47;;;18.60;99.90;;;18.61;50.52;100238.88;4881542;28;105444;-45
2022/11/19 01:51:01;;;;;;;1.30;0.70;;;18.60;99.90;;;18.62;50.62;100240.56;4881653;28;102488;-46
2022/11/19 01:53:31;;;;;;;0.93;0.53;;;18.60;99.90;;;18.60;50.63;100242.50;4871859;28;97235;-47
2022/11/19 01:56:02;;;;;;;1.13;0.80;;;18.60;99.90;;;18.60;50.36;100253.19;4868833;28;100478;-45
2022/11/19 01:58:33;;;;;;;0.80;0.50;;;18.60;99.90;;;18.61;50.34;100248.69;4865778;28;97179;-42
2022/11/19 02:00:59;;;;;;;0.43;0.43;;;18.60;99.90;;;18.62;50.42;100251.25;4888990;28;98938;-45
2022/11/19 02:03:29;;;;;;;0.60;0.40;;;18.60;99.90;;;18.65;50.57;100244.84;4876127;28;99126;-48
2022/11/19 02:05:55;;;;;;;1.00;0.67;;;18.70;99.90;;;18.65;50.22;100251.03;4885856;28;97331;-45
2022/11/19 02:08:48;;;;;;;0.50;0.30;;;18.70;99.90;;;18.66;50.27;100250.09;4888509;28;106814;-44
2022/11/19 02:11:59;;;;;;;0.90;0.57;;;18.70;99.90;;;18.65;50.38;100256.38;4887563;28;99765;-47
2022/11/19 02:14:43;;;;;;;0.63;0.50;;;18.80;99.90;;;18.68;50.18;100261.53;4887994;28;99250;-47
2022/11/19 02:17:41;;;;;;;0.40;0.40;;;18.80;99.90;;;18.68;50.15;100266.88;4871986;28;97603;-47
2022/11/19 02:20:29;;;;;;;0.73;0.60;;;18.80;99.90;;;18.68;50.17;100266.88;4889059;28;101769;-42
2022/11/19 02:23:28;;;;;;;1.03;0.87;;;18.80;99.90;;;18.67;50.27;100265.16;4884055;28;101206;-46
2022/11/19 02:26:42;;;;;;;0.53;0.40;;;18.80;99.90;;;18.68;50.09;100272.22;4884842;28;97411;-46
2022/11/19 02:29:30;;;;;;;0.97;0.30;;;18.80;99.90;;;18.70;49.85;100264.94;4886783;28;97079;-46
2022/11/19 02:31:58;;;;;;;0.70;0.40;;;18.80;99.90;;;18.70;50.18;100272.94;4882683;28;102147;-44
2022/11/19 02:34:55;;;;;;;0.50;0.50;;;18.80;99.90;;;18.72;50.18;100267.47;4879379;28;97353;-45
2022/11/19 02:37:53;;;;;;;1.87;0.90;;;18.80;99.90;;;18.68;49.66;100272.22;4869218;28;99489;-45
2022/11/19 02:40:41;;;;;;;1.00;0.60;;;18.80;99.90;;;18.66;50.21;100268.81;4880789;28;98371;-42
2022/11/19 02:43:19;;;;;;;0.50;0.30;;;18.80;99.90;;;18.65;50.24;100277.75;4866761;28;100573;-42
2022/11/19 02:46:08;;;;;;;0.73;0.57;;;18.70;99.90;;;18.63;50.46;100271.69;4882373;28;99330;-44
2022/11/19 02:48:39;;;;;;;0.37;0.33;;;18.60;99.90;;;18.61;50.51;100278.94;4867874;28;97437;-44
2022/11/19 02:51:06;;;;;;;1.87;0.60;;;18.60;99.90;;;18.60;50.58;100274.56;4884902;28;97741;-45
2022/11/19 02:53:32;;;;;;;1.27;0.60;;;18.60;99.90;;;18.60;50.33;100274.56;4885429;28;99119;-43
2022/11/19 02:56:10;;;;;;;1.03;0.43;;;18.60;99.90;;;18.59;50.41;100270.19;4885280;28;97335;-44
2022/11/19 03:04:28;;;;;;;0.53;0.40;;;18.70;99.90;;;18.63;50.60;100269.00;4887617;28;98460;-45
2022/11/19 03:07:07;;;;;;;0.83;0.60;;;18.70;99.90;;;18.66;50.33;100267.91;4866195;28;102734;-46
2022/11/19 03:09:38;;;;;;;2.07;0.50;;;18.80;99.90;;;18.69;50.52;100273.06;4864849;28;97500;-43
2022/11/19 03:12:41;;;;;;;0.93;0.60;;;18.80;99.90;;;18.71;50.35;100279.97;4848534;28;97355;-45
2022/11/19 03:18:42;;;;;;;0.37;0.37;;;18.80;99.90;;;18.70;50.32;100286.31;4855745;28;101104;-44
2022/11/19 03:21:40;;;;;;;1.33;0.70;;;18.80;99.90;;;18.70;50.23;100280.09;4886136;28;101452;-43
2022/11/19 03:24:14;;;;;;;0.90;0.70;;;18.80;99.90;;;18.73;50.15;100280.72;4886973;28;97040;-46
2022/11/19 03:26:51;;;;;;;0.73;0.43;;;18.80;99.90;;;18.75;50.26;100282.41;4864797;28;97869;-44
2022/11/19 03:29:18;;;;;;;1.37;0.70;;;18.90;99.90;;;18.68;50.16;100277.56;4872838;28;99345;-44
2022/11/19 03:31:50;;;;;;;0.73;0.50;;;18.80;99.90;;;18.62;50.29;100288.66;4892648;28;105584;-45
2022/11/19 03:34:21;;;;;;;1.87;0.60;;;18.60;99.90;;;18.55;50.44;100282.06;4906272;28;97254;-44
2022/11/19 03:36:50;;;;;;;0.57;0.40;;;18.40;99.90;;;18.56;50.43;100283.78;4882179;28;96963;-49
2022/11/19 03:39:18;;;;;;;0.20;0.20;;;18.50;99.90;;;18.55;50.71;100289.25;4913653;28;100893;-43
2022/11/19 03:41:48;;;;;;;0.80;0.40;;;18.50;99.90;;;18.53;50.69;100294.69;4903131;28;106490;-46
2022/11/19 03:44:31;;;;;;;0.57;0.37;;;18.40;99.90;;;18.52;50.78;100297.47;4929876;28;97482;-44
2022/11/19 03:47:05;;;;;;;0.37;0.30;;;18.40;99.90;;;18.48;50.68;100290.63;4916957;28;101351;-43
2022/11/19 03:49:37;;;;;;;0.30;0.30;;;18.40;99.90;;;18.41;50.92;100298.28;4920926;28;97690;-45
2022/11/19 03:52:17;;;;;;;0.83;0.60;;;18.30;99.90;;;18.41;51.09;100288.44;4906116;28;97284;-46
2022/11/19 03:54:43;;;;;;;1.03;0.70;;;18.30;99.90;;;18.41;50.94;100292.94;4903433;28;97006;-43
2022/11/19 03:57:14;;;;;;;0.60;0.60;;;18.40;99.90;;;18.40;50.90;100299.22;4914984;28;97551;-44
2022/11/19 03:59:41;;;;;;;0.67;0.43;;;18.30;99.90;;;18.41;50.80;100306.28;4917463;28;97144;-44
2022/11/19 04:02:09;;;;;;;0.90;0.33;;;18.40;99.90;;;18.49;50.59;100309.22;4922784;28;97109;-46
2022/11/19 04:04:37;;;;;;;0.20;0.20;;;18.50;99.90;;;18.53;50.47;100321.41;4904980;28;97437;-46
2022/11/19 04:07:10;;;;;;;0.53;0.40;;;18.60;99.90;;;18.50;50.56;100321.59;4912033;28;97063;-46
2022/11/19 04:09:37;;;;;;;0.60;0.50;;;18.60;99.90;;;18.53;50.24;100326.75;4902066;28;98228;-43
2022/11/19 04:12:04;;;;;;;0.77;0.40;;;18.70;99.90;;;18.48;50.55;100323.53;4913946;28;101622;-43
2022/11/19 04:14:30;;;;;;;0.50;0.30;;;18.70;99.90;;;18.47;50.45;100334.34;4928029;28;97147;-44
2022/11/19 04:16:56;;;;;;;0.43;0.33;;;18.70;99.90;;;18.49;50.29;100333.25;4928539;28;97146;-48
2022/11/19 04:19:21;;;;;;;0.20;0.20;;;18.70;99.90;;;18.50;50.25;100332.28;4938646;28;97047;-44
2022/11/19 04:21:47;;;;;;;1.03;0.50;;;18.80;99.90;;;18.55;50.02;100343.50;4924750;28;108776;-47
2022/11/19 04:24:14;;;;;;;0.60;0.50;;;18.80;99.90;;;18.59;49.76;100347.66;4938549;28;97148;-44
2022/11/19 04:26:39;;;;;;;1.13;0.30;;;18.80;99.90;;;18.62;49.49;100352.75;4932422;28;99027;-43
2022/11/19 04:29:05;;;;;;;0.17;0.17;;;18.80;99.90;;;18.59;49.69;100353.00;4931670;28;110625;-44
2022/11/19 04:31:31;;;;;;;0.20;0.20;;;18.80;99.90;;;18.64;49.16;100360.69;4937064;28;97094;-43
2022/11/19 04:33:57;;;;;;;0.77;0.33;;;18.80;99.90;;;18.65;49.08;100357.91;4935682;28;96890;-43
2022/11/19 04:36:22;;;;;;;0.80;0.40;;;18.80;99.90;;;18.66;49.17;100364.97;4926955;28;96804;-43
2022/11/19 04:38:48;;;;;;;0.20;0.10;;;18.90;99.90;;;18.67;49.09;100361.34;4925291;28;96942;-43
2022/11/19 04:41:14;;;;;;;0.97;0.40;;;18.90;99.90;;;18.69;49.12;100359.41;4934667;28;103099;-42
2022/11/19 04:43:39;;;;;;;1.23;0.50;;;18.90;99.90;;;18.70;49.32;100360.25;4925823;28;99081;-45
2022/11/19 04:46:05;;;;;;;0.63;0.30;;;18.90;99.90;;;18.70;49.06;100365.59;4911402;28;103137;-42
2022/11/19 04:48:31;;;;;;;0.10;0.10;;;18.90;99.90;;;18.70;49.38;100365.59;4936850;28;97478;-46
2022/11/19 04:50:57;;;;;;;0.13;0.13;;;18.90;99.90;;;18.72;49.28;100363.66;4920465;28;96832;-43
2022/11/19 04:53:23;;;;;;;0.43;0.33;;;18.90;99.90;;;18.72;48.95;100369.84;4927124;28;103550;-46
2022/11/19 04:55:48;;;;;;;0.33;0.20;;;18.90;99.90;;;18.71;49.06;100373.50;4917010;28;97266;-45
2022/11/19 04:58:14;;;;;;;0.40;0.20;;;18.90;99.90;;;18.70;49.09;100371.78;4925333;28;113482;-44
2022/11/19 05:00:40;;;;;;;0.20;0.10;;;18.90;99.90;;;18.69;49.07;100375.44;4909553;28;97175;-44
2022/11/19 05:03:06;;;;;;;0.10;0.10;;;18.90;99.90;;;18.72;48.92;100377.00;4918634;28;99771;-46
2022/11/19 05:05:31;;;;;;;0.10;0.10;;;18.90;99.90;;;18.71;48.88;100378.84;4925118;28;111075;-47
2022/11/19 05:07:57;;;;;;;0.10;0.07;;;18.90;99.90;;;18.72;49.10;100385.88;4905089;28;98144;-43
2022/11/19 05:10:23;;;;;;;0.83;0.10;;;18.90;99.90;;;18.68;49.28;100389.75;4910797;28;102375;-43
2022/11/19 05:12:49;;;;;;;0.10;0.10;;;18.90;99.90;;;18.66;48.96;100393.47;4922709;28;104134;-46
2022/11/19 05:15:14;;;;;;;0.20;0.17;;;18.90;99.90;;;18.67;48.66;100398.72;4922445;28;114341;-44
2022/11/19 05:17:40;;;;;;;0.10;0.00;;;18.90;99.90;;;18.65;48.75;100400.63;4922892;28;96980;-47
2022/11/19 05:20:08;;;;;;;0.47;0.00;;;18.90;99.90;;;18.60;48.60;100397.44;4921184;28;100344;-43
2022/11/19 05:22:33;;;;;;;0.40;0.10;;;18.80;99.90;;;18.58;48.94;100402.03;4926298;28;97039;-43
2022/11/19 05:24:59;;;;;;;0.23;0.23;;;18.80;99.90;;;18.63;48.68;100402.56;4913049;28;123628;-43
2022/11/19 05:27:25;;;;;;;0.20;0.10;;;18.80;99.90;;;18.66;48.32;100410.38;4924604;28;115594;-46
2022/11/19 05:29:50;;;;;;;0.30;0.20;;;18.90;99.90;;;18.61;48.57;100403.63;4928799;28;96900;-44
2022/11/19 05:32:16;;;;;;;0.27;0.10;;;18.80;99.90;;;18.65;48.22;100410.47;4927975;28;104552;-43
2022/11/19 05:34:42;;;;;;;0.10;0.00;;;18.90;99.90;;;18.69;48.22;100423.50;4916770;28;105990;-45
2022/11/19 05:37:08;;;;;;;0.40;0.20;;;18.90;99.90;;;18.58;48.55;100419.88;4923288;28;108225;-43
2022/11/19 05:39:33;;;;;;;0.13;0.13;;;18.80;99.90;;;18.59;48.05;100438.47;4924128;28;97225;-43
2022/11/19 05:41:59;;;;;;;0.10;0.10;;;18.80;99.90;;;18.60;48.27;100431.31;4918184;28;107217;-43
2022/11/19 05:44:25;;;;;;;0.10;0.10;;;18.80;99.90;;;18.58;48.26;100426.06;4928571;28;99151;-43
2022/11/19 05:46:51;;;;;;;0.10;0.10;;;18.80;99.90;;;18.64;48.44;100431.00;4920205;28;125463;-45
2022/11/19 05:49:17;;;;;;;0.10;0.10;;;18.80;99.90;;;18.67;48.10;100429.94;4921395;28;97960;-43
2022/11/19 05:51:45;;;;;;;0.20;0.10;;;18.80;99.90;;;18.67;48.25;100438.81;4907050;28;97214;-44
2022/11/19 05:54:10;;;;;;;0.00;0.00;;;18.80;99.90;;;18.65;47.93;100440.72;4912786;28;98757;-48
2022/11/19 05:56:36;;;;;;;0.43;0.20;;;18.80;99.90;;;18.67;47.90;100445.97;4920907;28;118954;-45
2022/11/19 05:59:02;;;;;;;0.00;0.00;;;18.80;99.90;;;18.67;47.97;100445.97;4921783;28;97233;-46
2022/11/19 06:01:29;;;;;;;0.00;0.00;;;18.80;99.60;;;18.58;48.23;100447.44;4923806;28;108778;-44
2022/11/19 06:03:55;;;;;;;0.43;0.23;;;18.60;99.50;;;18.54;48.26;100450.44;4920173;28;97783;-45
2022/11/19 06:06:21;;;;;;;0.10;0.10;;;18.50;99.90;;;18.52;48.63;100447.91;4928086;28;97075;-46
2022/11/19 06:08:48;;;;;;;0.70;0.10;;;18.50;99.90;;;18.51;48.59;100438.16;4930018;28;96791;-44
2022/11/19 06:13:59;;;;;;;0.10;0.10;;;18.60;99.90;;;18.47;48.87;100447.34;4922725;28;97185;-43
2022/11/19 06:16:25;;;;;;;0.33;0.30;;;18.50;99.90;;;18.45;48.94;100451.94;4908145;28;97632;-43
2022/11/19 06:18:51;;;;;;;0.10;0.00;;;18.40;99.90;;;18.38;48.99;100456.03;4914373;28;98253;-44
2022/11/19 06:21:17;;;;;;;0.33;0.10;;;18.30;99.90;;;18.27;49.01;100458.59;4923855;28;97588;-44
2022/11/19 06:23:42;;;;;;;0.43;0.27;;;18.20;98.70;;;18.27;48.96;100462.13;4916469;28;110653;-47
2022/11/19 06:26:09;;;;;;;0.27;0.10;;;18.20;99.90;;;18.31;49.17;100470.78;4930777;28;98397;-43
2022/11/19 06:28:35;;;;;;;0.20;0.20;;;18.20;99.90;;;18.26;49.30;100478.25;4917233;28;97307;-43
2022/11/19 06:31:01;;;;;;;0.20;0.20;;;18.20;99.90;;;18.22;49.46;100476.75;4914977;28;97126;-43
2022/11/19 06:33:27;;;;;;;0.57;0.20;;;18.10;99.90;;;18.25;49.09;100487.25;4925714;28;98236;-43
2022/11/19 06:35:53;;;;;;;0.70;0.20;;;18.20;99.90;;;18.29;49.13;100491.38;4919682;28;108743;-44
2022/11/19 06:38:19;;;;;;;2.00;0.40;;;18.30;99.90;;;18.32;49.14;100496.50;4921841;28;104902;-45
2022/11/19 06:40:45;;;;;;;0.20;0.10;;;18.30;99.90;;;18.33;49.00;100495.53;4921745;28;97471;-45
2022/11/19 06:43:11;;;;;;;0.27;0.20;;;18.40;99.90;;;18.37;49.05;100497.03;4917518;28;98563;-45
2022/11/19 06:45:37;;;;;;;0.20;0.20;;;18.50;99.90;;;18.42;48.67;100505.59;4923488;28;104656;-43
2022/11/19 06:48:03;;;;;;;0.30;0.30;;;18.50;99.90;;;18.44;48.63;100512.53;4923217;28;97206;-45
2022/11/19 06:50:30;;;;;;;0.30;0.20;;;18.60;99.90;;;18.48;48.51;100514.97;4925751;28;97281;-48
2022/11/19 06:52:56;;;;;;;0.17;0.10;;;18.60;99.90;;;18.52;48.50;100519.16;4923672;28;97865;-45
2022/11/19 06:55:21;;;;;;;0.10;0.10;;;18.60;99.90;;;18.40;48.01;100523.53;4908633;28;99821;-46
2022/11/19 06:57:47;;;;;;;0.27;0.17;;;18.40;98.50;;;18.23;49.08;100521.19;4921763;28;97174;-51
2022/11/19 07:00:14;;;;;;;0.53;0.27;;;18.10;98.90;;;18.23;49.12;100531.88;4923685;28;97034;-46
2022/11/19 07:02:40;;;;;;;0.20;0.20;;;18.10;99.90;;;18.17;49.08;100532.28;4924374;28;97173;-43
2022/11/19 07:05:07;;;;;;;0.27;0.27;;;18.00;99.90;;;18.03;49.50;100536.75;4931565;28;117582;-46
2022/11/19 07:07:33;;;;;;;0.30;0.30;;;17.80;99.90;;;18.02;49.58;100529.72;4906867;28;97031;-43
2022/11/19 07:09:59;;;;;;;0.20;0.20;;;17.80;99.90;;;18.02;49.52;100535.03;4932037;28;97037;-45
2022/11/19 07:12:26;;;;;;;1.23;0.50;;;17.80;99.90;;;18.01;49.52;100538.69;4927350;28;97184;-44
2022/11/19 07:14:52;;;;;;;0.50;0.30;;;17.90;99.90;;;18.08;49.35;100534.66;4920633;28;106993;-44
2022/11/19 07:17:17;;;;;;;1.47;0.50;;;18.00;99.90;;;18.16;49.24;100541.25;4922663;28;97245;-47
2022/11/19 07:19:43;;;;;;;0.73;0.40;;;18.10;99.90;;;18.21;49.09;100539.09;4919971;28;107929;-43
2022/11/19 07:22:09;;;;;;;0.20;0.20;;;18.20;99.90;;;18.23;48.60;100542.56;4923537;28;102104;-43
2022/11/19 07:24:35;;;;;;;0.40;0.30;;;18.30;99.40;;;18.22;48.72;100540.81;4922781;28;98078;-44
2022/11/19 07:27:01;;;;;;;1.33;0.40;;;18.20;99.90;;;18.23;48.53;100547.91;4933141;28;99285;-47
2022/11/19 07:29:27;;;;;;;1.03;0.47;;;18.30;99.90;;;18.26;48.58;100553.00;4932580;28;104181;-43
2022/11/19 07:31:52;;;;;;;0.40;0.33;;;18.30;99.90;;;18.30;48.74;100565.19;4926723;28;97693;-46
2022/11/19 07:34:19;;;;;;;1.90;0.37;;;18.40;99.90;;;18.31;48.40;100564.22;4930870;28;96801;-43
2022/11/19 07:36:46;;;;;;;1.10;0.50;;;18.40;99.90;;;18.35;48.66;100573.72;4925918;28;97002;-43
2022/11/19 07:39:12;;;;;;;0.90;0.70;;;18.40;99.90;;;18.36;48.65;100578.09;4924192;28;97025;-49
2022/11/19 07:44:22;;;;;;;0.40;0.40;;;18.50;99.90;;;18.36;48.96;100581.63;4916144;28;99817;-44
2022/11/19 07:46:48;;;;;;;0.60;0.30;;;18.40;99.90;;;18.40;48.53;100579.63;4928735;28;97825;-53
2022/11/19 07:49:14;;;;;;;1.30;0.53;;;18.40;99.90;;;18.40;48.48;100585.81;4924508;28;117300;-50
2022/11/19 07:51:39;;;;;;;0.63;0.40;;;18.50;99.90;;;18.44;48.64;100594.47;4914982;28;121834;-44
2022/11/19 07:54:08;;;;;;;2.37;0.67;;;18.50;99.90;;;18.39;48.64;100585.91;4910980;28;100365;-46
2022/11/19 07:56:34;;;;;;;0.50;0.40;;;18.40;99.90;;;18.30;48.74;100594.56;4916138;28;97383;-48
2022/11/19 07:59:00;;;;;;;1.73;1.20;;;18.30;99.50;;;18.26;49.02;100595.72;4916079;28;97111;-49
2022/11/19 08:01:25;;;;;;;0.30;0.30;;;18.30;99.90;;;18.33;48.95;100602.34;4900825;28;97290;-49
2022/11/19 08:03:52;;;;;;;0.63;0.57;;;18.30;99.90;;;18.38;48.51;100601.09;4918781;28;98139;-48
2022/11/19 08:06:19;;;;;;;1.43;0.67;;;18.50;99.90;;;18.39;48.51;100602.78;4914317;28;97375;-47
2022/11/19 08:08:46;;;;;;;0.60;0.57;;;18.40;99.90;;;18.41;48.15;100605.34;4919333;28;97508;-47
2022/11/19 08:11:14;;;;;;;0.60;0.40;;;18.50;99.90;;;18.39;48.39;100601.94;4917226;28;97560;-49
2022/11/19 08:13:40;;;;;;;0.70;0.60;;;18.40;99.90;;;18.41;48.28;100603.53;4924810;28;96740;-48
2022/11/19 08:16:09;;;;;;;1.03;0.50;;;18.40;99.90;;;18.44;48.29;100605.13;4922919;28;97194;-44
2022/11/19 08:18:36;;;;;;;0.87;0.40;;;18.50;99.90;;;18.44;48.55;100607.81;4924129;28;97601;-48
2022/11/19 08:21:08;;;;;;;0.87;0.70;;;18.40;99.90;;;18.47;48.50;100612.94;4903929;28;98300;-46
2022/11/19 08:23:36;;;;;;;1.47;0.90;;;18.60;99.90;;;18.49;48.39;100603.00;4921533;28;97653;-46
2022/11/19 08:26:05;;;;;;;1.23;0.73;;;18.60;99.90;;;18.54;48.15;100610.72;4920501;28;97356;-48
2022/11/19 08:28:31;;;;;;;0.77;0.57;;;18.70;99.90;;;18.51;48.45;100609.06;4919908;28;97301;-46
2022/11/19 08:31:05;;;;;;;1.53;0.73;;;18.70;99.90;;;18.56;48.09;100604.28;4916203;28;97456;-52
2022/11/19 08:33:31;;;;;;;1.00;0.50;;;18.80;99.90;;;18.56;48.06;100612.31;4925522;28;97447;-47
2022/11/19 08:35:57;;;;;;;1.53;0.90;;;18.80;99.70;;;18.63;47.70;100613.59;4927764;28;101146;-46
2022/11/19 08:38:23;;;;;;;0.93;0.57;;;18.80;99.60;;;18.63;47.40;100618.06;4931334;28;97154;-47
2022/11/19 08:42:58;;;;;;;1.30;0.77;;;18.80;99.50;;;18.61;47.37;100623.50;4927101;28;98332;-45
2022/11/19 08:43:39;;;;;;;2.23;1.17;;;18.80;99.30;;;18.63;46.96;100620.72;4916462;28;102463;-44
2022/11/19 08:46:06;;;;;;;1.40;0.87;;;18.80;98.30;;;18.60;47.47;100620.94;4920654;28;97305;-47
2022/11/19 08:48:32;;;;;;;1.83;0.97;;;18.80;99.40;;;18.63;46.86;100621.63;4925245;28;97597;-45
2022/11/19 08:51:03;;;;;;;3.10;0.80;;;18.80;98.30;;;18.64;47.15;100639.34;4913893;28;116973;-45
2022/11/19 08:53:28;;;;;;;1.87;1.10;;;18.80;99.20;;;18.65;47.09;100638.38;4903145;28;97772;-48
2022/11/19 08:55:54;;;;;;;3.30;1.80;;;18.80;98.40;;;18.28;35.45;100639.19;4910332;28;97088;-44
2022/11/19 08:58:20;;;;;;;4.17;2.10;;;18.30;88.00;;;17.75;38.06;100643.63;4929920;28;101591;-45
2022/11/19 09:00:46;;;;;;;1.77;0.90;;;17.30;91.20;;;17.35;49.17;100646.16;4922065;28;124489;-50
2022/11/19 09:03:11;;;;;;;0.90;0.80;;;16.50;99.90;;;17.39;49.85;100642.38;4917881;28;98097;-46
2022/11/19 09:05:37;;;;;;;1.53;0.83;;;16.70;99.90;;;17.54;49.64;100651.19;4933436;28;100652;-48
2022/11/19 09:08:03;;;;;;;5.07;2.20;;;17.10;99.90;;;17.42;44.42;100647.50;4918260;28;106472;-47
2022/11/19 09:10:29;;;;;;;2.87;2.03;;;17.10;93.90;;;16.97;42.06;100650.41;4923583;28;105441;-42
2022/11/19 09:12:55;;;;;;;4.20;2.00;;;16.50;93.60;;;16.59;47.94;100659.75;4919421;28;96794;-48
2022/11/19 09:15:20;;;;;;;1.30;1.13;;;15.80;95.30;;;16.53;52.00;100656.63;4928043;28;97036;-49
2022/11/19 09:17:46;;;;;;;2.60;1.70;;;15.60;99.90;;;15.96;41.15;100652.00;4924170;28;96928;-47
2022/11/19 09:20:12;;;;;;;4.33;2.33;;;15.10;94.60;;;15.70;41.94;100649.97;4911101;28;110688;-45
2022/11/19 09:22:38;;;;;;;2.13;1.27;;;14.70;96.40;;;15.37;52.69;100652.69;4932029;28;97720;-46
2022/11/19 09:25:05;;;;;;;2.80;1.90;;;14.30;99.90;;;15.20;41.61;100663.41;4918601;28;98419;-50
2022/11/19 09:27:31;;;;;;;3.60;1.57;;;14.40;96.30;;;15.17;46.15;100667.06;4920720;28;97332;-49
2022/11/19 09:29:56;;;;;;;1.70;1.07;;;14.30;99.00;;;15.30;55.19;100667.25;4919443;28;123061;-45
2022/11/19 09:32:22;;;;;;;4.53;1.83;;;14.40;99.90;;;15.07;44.34;100671.16;4910406;28;104039;-50
2022/11/19 09:34:48;;;;;;;1.20;0.80;;;14.30;96.30;;;15.11;55.34;100670.06;4890406;28;98048;-54
2022/11/19 09:37:13;;;;;;;3.37;1.50;;;14.20;99.90;;;15.38;54.96;100680.97;4888253;28;98714;-47
2022/11/19 09:39:39;;;;;;;2.47;1.33;;;14.60;99.90;;;14.97;42.36;100684.06;4890090;28;97914;-49
2022/11/19 09:42:50;;;;;;;4.33;1.80;;;14.20;96.80;;;14.31;43.42;100683.94;4890486;28;109515;-49
2022/11/19 09:45:22;;;;;;;3.47;1.37;;;13.40;98.90;;;14.13;53.62;100687.53;4845086;28;97762;-52
2022/11/19 09:48:22;;;;;;;1.67;0.80;;;13.10;99.90;;;14.48;57.70;100696.41;4874685;28;96952;-50
2022/11/19 09:50:58;;;;;;;2.20;1.40;;;13.40;99.90;;;14.80;54.79;100695.59;4891485;28;101652;-49
2022/11/19 09:53:29;;;;;;;1.60;1.50;;;14.20;99.90;;;15.04;53.77;100696.06;4887053;28;102481;-53
2022/11/19 09:55:55;;;;;;;2.80;1.67;;;14.50;99.90;;;14.78;44.80;100701.94;4888581;28;97838;-49
2022/11/19 09:58:44;;;;;;;2.70;0.93;;;14.10;96.70;;;15.01;53.02;100709.53;4884258;28;100029;-46
2022/11/19 10:01:16;;;;;;;1.33;0.97;;;14.20;99.90;;;15.04;56.21;100703.19;4871658;28;97336;-46
2022/11/19 10:03:50;;;;;;;3.40;1.50;;;14.20;99.90;;;15.17;45.75;100710.41;4895201;28;99612;-48
2022/11/19 10:06:29;;;;;;;2.87;1.30;;;14.60;97.70;;;15.02;42.65;100711.25;4890573;28;97933;-52
2022/11/19 10:09:07;;;;;;;1.07;0.87;;;14.30;96.90;;;14.63;54.12;100714.19;4890102;28;97734;-50
2022/11/19 10:11:42;;;;;;;1.43;1.23;;;13.70;99.90;;;14.72;56.17;100712.84;4887222;28;100481;-49
2022/11/19 10:14:41;;;;;;;2.70;1.67;;;13.70;99.90;;;14.63;52.70;100710.69;4881024;28;97581;-53
2022/11/19 10:17:25;;;;;;;1.30;1.00;;;13.70;99.90;;;14.89;54.41;100712.81;4885096;28;98029;-53
2022/11/19 10:20:32;;;;;;;1.87;1.30;;;14.00;99.90;;;14.58;45.00;100710.91;4890945;28;98329;-44
2022/11/19 10:23:24;;;;;;;2.17;1.00;;;13.70;99.00;;;14.56;55.28;100718.94;4894240;28;100530;-53
2022/11/19 10:26:01;;;;;;;1.10;0.70;;;13.50;99.90;;;15.14;56.51;100713.25;4886556;28;99507;-47
2022/11/19 10:28:31;;;;;;;0.50;0.50;;;14.30;99.90;;;15.46;55.39;100719.47;4860781;28;97698;-48
2022/11/19 10:31:17;;;;;;;1.80;0.77;;;15.00;99.90;;;15.89;54.30;100726.88;4872010;28;99241;-45
2022/11/19 10:33:50;;;;;;;1.80;1.00;;;15.50;99.90;;;16.31;53.05;100727.09;4887199;28;101182;-51
2022/11/19 10:36:25;;;;;;;1.20;0.90;;;16.20;99.90;;;16.66;52.30;100727.69;4873741;28;97013;-51
2022/11/19 10:39:06;;;;;;;2.30;1.13;;;16.60;99.90;;;16.93;51.16;100724.34;4892852;28;96936;-49
2022/11/19 10:41:50;;;;;;;1.30;0.90;;;17.00;99.90;;;17.18;50.22;100729.00;4889609;28;97370;-50